Terminal Aerodrome Forecast
Issued by NWS Mt. Holly, NJ

Home | Current Version | Previous Version | Text Only | Print | Product List | Glossary On
Versions: 1 2 3 4 5 6 7 8 9 10 11 12 13 14 15 16 17 18 19 20 21 22 23 24 25 26
000
FTUS41 KPHI 271722
TAFPHL
TAF
KPHL 271722Z 2718/2824 33010KT P6SM SCT040
     FM280000 33005KT P6SM SKC
     FM280800 32005KT P6SM SCT150
     FM281800 28006KT P6SM SCT050 SCT100=

USA.gov is the U.S. government's official web portal to all federal, state and local government web resources and services.